sensor_id;sensor_type;location;lat;lon;timestamp;pressure;altitude;pressure_sealevel;temperature;humidity
59315;BME280;46521;50.160;20.802;2022-09-09T00:03:17;99222.97;;;19.50;68.07
59315;BME280;46521;50.160;20.802;2022-09-09T00:13:28;99216.44;;;19.46;68.20
59315;BME280;46521;50.160;20.802;2022-09-09T00:23:42;99219.50;;;19.38;68.48
59315;BME280;46521;50.160;20.802;2022-09-09T00:33:46;99230.80;;;19.40;68.57
59315;BME280;46521;50.160;20.802;2022-09-09T01:04:29;99242.72;;;19.08;69.20
59315;BME280;46521;50.160;20.802;2022-09-09T01:14:38;99253.10;;;19.05;69.56
59315;BME280;46521;50.160;20.802;2022-09-09T01:35:15;99263.83;;;19.05;70.20
59315;BME280;46521;50.160;20.802;2022-09-09T01:45:21;99277.22;;;19.05;70.20
59315;BME280;46521;50.160;20.802;2022-09-09T01:55:40;99281.41;;;18.89;70.62
59315;BME280;46521;50.160;20.802;2022-09-09T02:05:52;99280.66;;;18.70;70.87
59315;BME280;46521;50.160;20.802;2022-09-09T02:16:01;99295.51;;;18.54;71.40
59315;BME280;46521;50.160;20.802;2022-09-09T02:26:04;99298.06;;;18.49;71.73
59315;BME280;46521;50.160;20.802;2022-09-09T02:36:08;99298.06;;;18.49;71.96
59315;BME280;46521;50.160;20.802;2022-09-09T02:56:27;99311.33;;;18.44;72.24
59315;BME280;46521;50.160;20.802;2022-09-09T03:06:33;99314.81;;;18.44;72.15
59315;BME280;46521;50.160;20.802;2022-09-09T03:16:34;99318.59;;;18.25;72.77
59315;BME280;46521;50.160;20.802;2022-09-09T03:26:35;99319.66;;;18.05;72.79
59315;BME280;46521;50.160;20.802;2022-09-09T03:36:38;99321.89;;;17.90;73.32
59315;BME280;46521;50.160;20.802;2022-09-09T03:46:41;99329.17;;;17.82;73.11
59315;BME280;46521;50.160;20.802;2022-09-09T03:56:43;99356.56;;;17.59;73.09
59315;BME280;46521;50.160;20.802;2022-09-09T04:06:44;99363.16;;;17.38;73.25
59315;BME280;46521;50.160;20.802;2022-09-09T04:16:45;99369.03;;;17.22;73.46
59315;BME280;46521;50.160;20.802;2022-09-09T04:26:47;99372.73;;;17.21;73.71
59315;BME280;46521;50.160;20.802;2022-09-09T04:36:48;99376.90;;;17.17;73.76
59315;BME280;46521;50.160;20.802;2022-09-09T04:46:50;99380.22;;;17.12;73.54
59315;BME280;46521;50.160;20.802;2022-09-09T04:56:51;99384.70;;;17.18;73.79
59315;BME280;46521;50.160;20.802;2022-09-09T05:06:52;99389.27;;;17.36;73.87
59315;BME280;46521;50.160;20.802;2022-09-09T05:16:53;99390.73;;;17.57;74.13
59315;BME280;46521;50.160;20.802;2022-09-09T05:26:55;99394.39;;;17.81;73.58
59315;BME280;46521;50.160;20.802;2022-09-09T05:37:00;99391.31;;;18.03;73.50
59315;BME280;46521;50.160;20.802;2022-09-09T05:47:02;99396.20;;;18.43;72.99
59315;BME280;46521;50.160;20.802;2022-09-09T05:57:03;99400.75;;;18.73;72.77
59315;BME280;46521;50.160;20.802;2022-09-09T06:07:05;99410.19;;;19.06;72.25
59315;BME280;46521;50.160;20.802;2022-09-09T06:17:06;99412.41;;;19.09;72.30
59315;BME280;46521;50.160;20.802;2022-09-09T06:27:08;99415.36;;;19.43;71.75
59315;BME280;46521;50.160;20.802;2022-09-09T06:37:09;99428.85;;;19.24;71.98
59315;BME280;46521;50.160;20.802;2022-09-09T06:47:11;99435.52;;;19.22;71.90
59315;BME280;46521;50.160;20.802;2022-09-09T06:57:12;99435.74;;;19.20;71.54
59315;BME280;46521;50.160;20.802;2022-09-09T07:07:13;99438.80;;;19.48;71.61
59315;BME280;46521;50.160;20.802;2022-09-09T07:17:16;99452.59;;;19.75;70.84
59315;BME280;46521;50.160;20.802;2022-09-09T07:27:17;99455.47;;;20.32;70.45
59315;BME280;46521;50.160;20.802;2022-09-09T07:37:19;99457.68;;;20.35;69.91
59315;BME280;46521;50.160;20.802;2022-09-09T07:47:20;99462.42;;;20.69;69.73
59315;BME280;46521;50.160;20.802;2022-09-09T07:57:22;99460.38;;;21.51;68.28
59315;BME280;46521;50.160;20.802;2022-09-09T08:07:24;99461.48;;;21.89;67.41
59315;BME280;46521;50.160;20.802;2022-09-09T08:17:25;99457.50;;;22.53;66.33
59315;BME280;46521;50.160;20.802;2022-09-09T08:27:26;99469.78;;;22.43;65.51
59315;BME280;46521;50.160;20.802;2022-09-09T08:37:28;99469.02;;;21.70;65.29
59315;BME280;46521;50.160;20.802;2022-09-09T08:58:31;99471.83;;;21.97;64.61
59315;BME280;46521;50.160;20.802;2022-09-09T09:08:42;99474.52;;;21.97;63.75
59315;BME280;46521;50.160;20.802;2022-09-09T09:18:45;99481.97;;;22.29;63.04
59315;BME280;46521;50.160;20.802;2022-09-09T09:28:46;99477.78;;;22.82;62.37
59315;BME280;46521;50.160;20.802;2022-09-09T09:38:56;99492.83;;;22.78;62.00
59315;BME280;46521;50.160;20.802;2022-09-09T09:49:03;99488.91;;;24.16;61.24
59315;BME280;46521;50.160;20.802;2022-09-09T09:59:37;99490.77;;;24.63;59.41
59315;BME280;46521;50.160;20.802;2022-09-09T10:09:40;99486.20;;;24.74;58.98
59315;BME280;46521;50.160;20.802;2022-09-09T10:19:49;99494.25;;;23.73;58.51
59315;BME280;46521;50.160;20.802;2022-09-09T10:30:17;99501.42;;;23.57;58.22
59315;BME280;46521;50.160;20.802;2022-09-09T10:40:33;99494.83;;;23.43;57.33
59315;BME280;46521;50.160;20.802;2022-09-09T11:00:49;99474.96;;;25.69;55.41
59315;BME280;46521;50.160;20.802;2022-09-09T11:21:08;99491.78;;;24.52;53.10
59315;BME280;46521;50.160;20.802;2022-09-09T11:41:39;99489.49;;;24.86;52.59
59315;BME280;46521;50.160;20.802;2022-09-09T11:51:40;99485.51;;;25.76;51.52
59315;BME280;46521;50.160;20.802;2022-09-09T12:01:42;99470.84;;;26.08;49.42
59315;BME280;46521;50.160;20.802;2022-09-09T12:11:44;99465.15;;;26.15;49.35
59315;BME280;46521;50.160;20.802;2022-09-09T12:22:31;99467.05;;;25.94;48.97
59315;BME280;46521;50.160;20.802;2022-09-09T12:32:35;99463.28;;;26.00;48.68
59315;BME280;46521;50.160;20.802;2022-09-09T12:42:39;99461.34;;;26.21;47.88
59315;BME280;46521;50.160;20.802;2022-09-09T12:52:41;99466.80;;;25.80;47.30
59315;BME280;46521;50.160;20.802;2022-09-09T13:02:51;99468.16;;;25.00;47.29
59315;BME280;46521;50.160;20.802;2022-09-09T13:12:53;99458.67;;;25.08;47.27
59315;BME280;46521;50.160;20.802;2022-09-09T13:22:55;99464.68;;;25.35;46.58
59315;BME280;46521;50.160;20.802;2022-09-09T13:33:04;99457.65;;;25.55;46.25
59315;BME280;46521;50.160;20.802;2022-09-09T13:43:18;99444.13;;;25.34;45.93
59315;BME280;46521;50.160;20.802;2022-09-09T13:53:21;99439.20;;;25.21;45.04
59315;BME280;46521;50.160;20.802;2022-09-09T14:03:23;99430.81;;;25.28;44.94
59315;BME280;46521;50.160;20.802;2022-09-09T14:13:24;99422.74;;;25.33;44.67
59315;BME280;46521;50.160;20.802;2022-09-09T14:23:26;99426.73;;;25.05;44.30
59315;BME280;46521;50.160;20.802;2022-09-09T14:33:27;99436.47;;;24.80;44.22
59315;BME280;46521;50.160;20.802;2022-09-09T14:43:31;99431.20;;;24.42;44.91
59315;BME280;46521;50.160;20.802;2022-09-09T14:53:33;99421.11;;;24.22;45.23
59315;BME280;46521;50.160;20.802;2022-09-09T15:03:35;99415.09;;;24.05;45.71
59315;BME280;46521;50.160;20.802;2022-09-09T15:13:39;99412.31;;;23.89;46.15
59315;BME280;46521;50.160;20.802;2022-09-09T15:23:41;99414.89;;;23.74;46.45
59315;BME280;46521;50.160;20.802;2022-09-09T15:33:51;99408.09;;;23.66;46.93
59315;BME280;46521;50.160;20.802;2022-09-09T15:43:54;99407.57;;;23.69;46.95
59315;BME280;46521;50.160;20.802;2022-09-09T15:53:58;99405.47;;;23.77;47.15
59315;BME280;46521;50.160;20.802;2022-09-09T16:04:00;99413.20;;;23.63;47.01
59315;BME280;46521;50.160;20.802;2022-09-09T16:14:03;99411.46;;;23.46;47.22
59315;BME280;46521;50.160;20.802;2022-09-09T16:24:05;99412.98;;;23.32;47.73
59315;BME280;46521;50.160;20.802;2022-09-09T16:34:08;99416.13;;;23.18;48.02
59315;BME280;46521;50.160;20.802;2022-09-09T16:44:11;99425.33;;;22.95;48.48
59315;BME280;46521;50.160;20.802;2022-09-09T16:54:14;99429.59;;;22.64;49.67
59315;BME280;46521;50.160;20.802;2022-09-09T17:04:18;99440.84;;;22.34;50.30
59315;BME280;46521;50.160;20.802;2022-09-09T17:14:21;99437.22;;;22.06;51.40
59315;BME280;46521;50.160;20.802;2022-09-09T17:24:23;99430.48;;;21.86;51.84
59315;BME280;46521;50.160;20.802;2022-09-09T17:34:27;99442.28;;;21.63;52.28
59315;BME280;46521;50.160;20.802;2022-09-09T17:44:28;99441.91;;;21.42;52.45
59315;BME280;46521;50.160;20.802;2022-09-09T17:54:29;99453.97;;;21.23;53.03
59315;BME280;46521;50.160;20.802;2022-09-09T18:04:31;99457.47;;;21.06;53.71
59315;BME280;46521;50.160;20.802;2022-09-09T18:14:32;99478.34;;;20.87;53.65
59315;BME280;46521;50.160;20.802;2022-09-09T18:24:34;99483.09;;;20.68;54.27
59315;BME280;46521;50.160;20.802;2022-09-09T18:34:36;99477.61;;;20.51;54.89
59315;BME280;46521;50.160;20.802;2022-09-09T18:44:37;99492.59;;;20.35;55.74
59315;BME280;46521;50.160;20.802;2022-09-09T18:54:38;99501.63;;;20.18;56.50
59315;BME280;46521;50.160;20.802;2022-09-09T19:04:43;99506.41;;;20.04;56.92
59315;BME280;46521;50.160;20.802;2022-09-09T19:14:45;99518.66;;;19.99;57.41
59315;BME280;46521;50.160;20.802;2022-09-09T19:24:46;99507.09;;;19.87;57.87
59315;BME280;46521;50.160;20.802;2022-09-09T19:34:50;99506.03;;;19.76;58.35
59315;BME280;46521;50.160;20.802;2022-09-09T19:44:51;99517.45;;;19.72;58.65
59315;BME280;46521;50.160;20.802;2022-09-09T19:54:53;99518.95;;;19.68;59.16
59315;BME280;46521;50.160;20.802;2022-09-09T20:04:55;99525.82;;;19.63;59.24
59315;BME280;46521;50.160;20.802;2022-09-09T20:14:56;99526.16;;;19.55;59.65
59315;BME280;46521;50.160;20.802;2022-09-09T20:24:58;99514.92;;;19.35;60.01
59315;BME280;46521;50.160;20.802;2022-09-09T20:34:59;99516.75;;;19.22;60.38
59315;BME280;46521;50.160;20.802;2022-09-09T20:45:01;99517.76;;;19.09;60.57
59315;BME280;46521;50.160;20.802;2022-09-09T20:55:02;99521.56;;;19.02;60.94
59315;BME280;46521;50.160;20.802;2022-09-09T21:05:04;99522.34;;;18.90;61.15
59315;BME280;46521;50.160;20.802;2022-09-09T21:15:05;99532.14;;;18.78;61.42
59315;BME280;46521;50.160;20.802;2022-09-09T21:25:07;99519.12;;;18.63;61.73
59315;BME280;46521;50.160;20.802;2022-09-09T21:35:09;99516.39;;;18.51;62.05
59315;BME280;46521;50.160;20.802;2022-09-09T21:45:12;99513.26;;;18.36;62.34
59315;BME280;46521;50.160;20.802;2022-09-09T21:55:14;99534.36;;;18.26;62.59
59315;BME280;46521;50.160;20.802;2022-09-09T22:05:16;99535.23;;;18.19;62.81
59315;BME280;46521;50.160;20.802;2022-09-09T22:15:17;99529.14;;;18.12;62.78
59315;BME280;46521;50.160;20.802;2022-09-09T22:25:18;99525.19;;;17.96;63.28
59315;BME280;46521;50.160;20.802;2022-09-09T22:35:20;99515.98;;;17.86;63.40
59315;BME280;46521;50.160;20.802;2022-09-09T22:55:39;99496.61;;;17.65;63.86
59315;BME280;46521;50.160;20.802;2022-09-09T23:05:41;99474.72;;;17.50;64.53
59315;BME280;46521;50.160;20.802;2022-09-09T23:15:42;99473.19;;;17.35;64.37
59315;BME280;46521;50.160;20.802;2022-09-09T23:25:46;99462.73;;;17.27;65.27
59315;BME280;46521;50.160;20.802;2022-09-09T23:36:00;99455.77;;;17.26;65.19
59315;BME280;46521;50.160;20.802;2022-09-09T23:46:02;99443.30;;;17.13;65.50
59315;BME280;46521;50.160;20.802;2022-09-09T23:56:03;99436.98;;;17.07;66.14
